createdAt,value
2022-10-13T00:00:51.199Z,68.65
2022-10-13T00:03:19.011Z,68.65
2022-10-13T00:05:48.801Z,70.69
2022-10-13T00:08:19.419Z,71.32
2022-10-13T00:10:49.729Z,71.88
2022-10-13T00:13:19.665Z,70.73
2022-10-13T00:15:47.815Z,69.14
2022-10-13T00:18:15.909Z,68.94
2022-10-13T00:20:45.070Z,68.95
2022-10-13T00:23:14.016Z,68.71
2022-10-13T00:25:49.666Z,68.23
2022-10-13T00:28:19.033Z,70.87
2022-10-13T00:30:46.944Z,71.31
2022-10-13T00:33:14.575Z,71.98
2022-10-13T00:35:44.431Z,70.16
2022-10-13T00:38:12.344Z,71.08
2022-10-13T00:40:47.447Z,70.32
2022-10-13T00:43:47.785Z,70.92
2022-10-13T00:46:15.637Z,69.17
2022-10-13T00:48:45.554Z,70.04
2022-10-13T00:51:15.273Z,70.59
2022-10-13T00:53:43.929Z,69.62
2022-10-13T00:56:12.286Z,69.42
2022-10-13T00:58:41.016Z,69.40
2022-10-13T01:01:08.668Z,69.98
2022-10-13T01:03:36.579Z,70.85
2022-10-13T01:06:05.591Z,70.10
2022-10-13T01:08:33.673Z,69.50
2022-10-13T01:11:19.800Z,70.51
2022-10-13T01:14:01.235Z,72.19
2022-10-13T01:16:53.670Z,71.21
2022-10-13T01:19:45.600Z,72.28
2022-10-13T01:22:40.610Z,72.16
2022-10-13T01:25:26.864Z,72.64
2022-10-13T01:28:28.632Z,72.08
2022-10-13T01:31:10.126Z,71.03
2022-10-13T01:33:40.227Z,71.99
2022-10-13T01:36:41.865Z,72.00
2022-10-13T01:39:28.008Z,70.99
2022-10-13T01:42:01.670Z,69.95
2022-10-13T01:44:36.245Z,70.03
2022-10-13T01:47:04.209Z,70.42
2022-10-13T01:49:34.770Z,70.61
2022-10-13T01:52:04.999Z,72.54
2022-10-13T01:54:33.212Z,71.83
2022-10-13T01:57:01.283Z,72.49
2022-10-13T01:59:30.638Z,71.76
2022-10-13T02:02:09.606Z,70.90
2022-10-13T02:04:40.107Z,70.94
2022-10-13T02:07:18.454Z,70.96
2022-10-13T02:09:55.517Z,70.68
2022-10-13T02:12:31.408Z,71.74
2022-10-13T02:14:59.609Z,72.38
2022-10-13T02:17:27.670Z,71.45
2022-10-13T02:19:55.651Z,70.48
2022-10-13T02:22:28.150Z,68.57
2022-10-13T02:24:56.154Z,68.71
2022-10-13T02:27:23.813Z,69.15
2022-10-13T02:29:56.688Z,68.63
2022-10-13T02:32:25.799Z,69.44
2022-10-13T02:34:53.729Z,68.61
2022-10-13T02:37:21.151Z,70.07
2022-10-13T02:39:48.725Z,70.93
2022-10-13T02:42:17.659Z,71.55
2022-10-13T02:44:45.285Z,70.71
2022-10-13T02:47:13.339Z,71.17
2022-10-13T02:49:40.690Z,71.44
2022-10-13T02:52:08.053Z,70.94
2022-10-13T02:54:38.245Z,69.67
2022-10-13T02:57:05.560Z,68.94
2022-10-13T02:59:32.921Z,69.92
2022-10-13T03:02:00.510Z,70.91
2022-10-13T03:04:28.833Z,70.35
2022-10-13T03:06:57.976Z,70.70
2022-10-13T03:09:25.609Z,69.21
2022-10-13T03:11:52.936Z,69.88
2022-10-13T03:14:20.275Z,71.34
2022-10-13T03:16:47.866Z,71.14
2022-10-13T03:19:15.495Z,70.86
2022-10-13T03:21:42.854Z,72.19
2022-10-13T03:24:10.458Z,72.25
2022-10-13T03:26:37.840Z,70.60
2022-10-13T03:29:05.161Z,71.56
2022-10-13T03:31:32.779Z,71.80
2022-10-13T03:34:02.329Z,71.15
2022-10-13T03:36:29.678Z,70.71
2022-10-13T03:38:57.273Z,70.41
2022-10-13T03:41:24.596Z,71.55
2022-10-13T03:43:52.271Z,70.19
2022-10-13T03:46:19.966Z,71.67
2022-10-13T03:48:48.009Z,72.03
2022-10-13T03:51:18.063Z,70.76
2022-10-13T03:53:46.856Z,70.94
2022-10-13T03:56:19.393Z,69.92
2022-10-13T03:58:54.314Z,70.08
2022-10-13T04:01:23.230Z,70.30
2022-10-13T04:03:52.426Z,71.27
2022-10-13T04:06:20.073Z,69.80
2022-10-13T04:08:48.369Z,69.66
2022-10-13T04:11:16.454Z,69.50
2022-10-13T04:13:45.034Z,70.09
2022-10-13T04:16:15.726Z,71.45
2022-10-13T04:18:44.979Z,71.10
2022-10-13T04:21:14.722Z,70.54
2022-10-13T04:23:42.523Z,70.57
2022-10-13T04:26:20.383Z,69.29
2022-10-13T04:28:49.250Z,68.87
2022-10-13T04:31:17.145Z,70.78
2022-10-13T04:33:45.183Z,70.83
2022-10-13T04:36:13.991Z,71.25
2022-10-13T04:38:42.311Z,70.90
2022-10-13T04:41:10.865Z,70.84
2022-10-13T04:43:38.410Z,69.11
2022-10-13T04:46:16.410Z,68.55
2022-10-13T04:48:43.810Z,69.19
2022-10-13T04:51:19.819Z,70.81
2022-10-13T04:53:47.186Z,70.29
2022-10-13T04:56:17.292Z,69.89
2022-10-13T04:58:45.831Z,71.08
2022-10-13T05:01:20.541Z,70.16
2022-10-13T05:03:56.636Z,69.45
2022-10-13T05:06:34.159Z,69.67
2022-10-13T05:09:02.272Z,70.63
2022-10-13T05:11:29.814Z,69.97
2022-10-13T05:13:57.645Z,70.34
2022-10-13T05:16:25.668Z,69.40
2022-10-13T05:18:54.337Z,68.36
2022-10-13T05:21:24.546Z,68.62
2022-10-13T05:23:56.006Z,71.12
2022-10-13T05:26:28.701Z,71.95
2022-10-13T05:28:56.877Z,70.77
2022-10-13T05:31:27.050Z,69.37
2022-10-13T05:33:55.371Z,69.56
2022-10-13T05:36:25.497Z,71.09
2022-10-13T05:38:54.826Z,71.86
2022-10-13T05:41:23.012Z,72.28
2022-10-13T05:43:51.898Z,72.42
2022-10-13T05:46:19.237Z,72.24
2022-10-13T05:48:46.577Z,71.86
2022-10-13T05:51:24.973Z,69.56
2022-10-13T05:53:57.825Z,68.73
2022-10-13T05:56:27.493Z,68.36
2022-10-13T05:59:00.028Z,68.04
2022-10-13T06:01:30.625Z,68.28
2022-10-13T06:04:01.457Z,69.78
2022-10-13T06:06:31.428Z,70.45
2022-10-13T06:09:00.815Z,71.79
2022-10-13T06:11:28.168Z,71.39
2022-10-13T06:13:55.514Z,70.11
2022-10-13T06:16:23.128Z,70.78
2022-10-13T06:18:50.466Z,71.26
2022-10-13T06:21:17.809Z,71.90
2022-10-13T06:23:45.372Z,69.95
2022-10-13T06:26:12.687Z,68.59
2022-10-13T06:28:40.043Z,66.66
2022-10-13T06:31:07.698Z,65.98
2022-10-13T06:33:35.084Z,64.39
2022-10-13T06:36:04.656Z,64.27
2022-10-13T06:38:32.947Z,64.89
2022-10-13T06:41:04.366Z,64.67
2022-10-13T06:43:39.932Z,64.57
2022-10-13T06:46:10.865Z,63.23
2022-10-13T06:48:39.031Z,62.70
2022-10-13T06:51:09.103Z,61.58
2022-10-13T06:53:37.318Z,64.09
2022-10-13T06:56:07.920Z,63.15
2022-10-13T06:58:36.055Z,61.73
2022-10-13T07:01:04.199Z,62.49
2022-10-13T07:03:32.054Z,62.32
2022-10-13T07:06:03.813Z,63.03
2022-10-13T07:08:31.937Z,62.57
2022-10-13T07:10:59.710Z,61.73
2022-10-13T07:13:27.730Z,62.50
2022-10-13T07:15:55.230Z,62.16
2022-10-13T07:18:22.843Z,61.38
2022-10-13T07:20:50.168Z,61.92
2022-10-13T07:23:17.476Z,61.59
2022-10-13T07:25:45.071Z,60.22
2022-10-13T07:28:12.468Z,60.85
2022-10-13T07:30:40.138Z,60.37
2022-10-13T07:33:07.761Z,60.10
2022-10-13T07:35:38.806Z,59.17
2022-10-13T07:38:07.425Z,59.45
2022-10-13T07:40:35.172Z,58.56
2022-10-13T07:43:02.876Z,57.67
2022-10-13T07:45:30.355Z,56.65
2022-10-13T07:47:57.947Z,57.08
2022-10-13T07:50:25.267Z,55.44
2022-10-13T07:52:52.579Z,55.75
2022-10-13T07:55:20.168Z,56.14
2022-10-13T07:57:47.477Z,56.45
2022-10-13T08:00:15.002Z,57.59
2022-10-13T08:02:42.666Z,56.21
2022-10-13T08:05:09.956Z,53.59
2022-10-13T08:07:39.288Z,53.94
2022-10-13T08:10:07.604Z,53.65
2022-10-13T08:12:35.885Z,53.54
2022-10-13T08:15:21.810Z,52.35
2022-10-13T08:17:49.395Z,53.19
2022-10-13T08:20:16.813Z,51.41
2022-10-13T08:22:44.145Z,52.84
2022-10-13T08:25:11.850Z,51.25
2022-10-13T08:27:50.791Z,48.04
2022-10-13T08:30:19.511Z,52.96
2022-10-13T08:32:47.403Z,47.67
2022-10-13T08:35:14.781Z,45.80
2022-10-13T08:37:42.464Z,44.67
2022-10-13T08:40:14.288Z,46.04
2022-10-13T08:42:43.842Z,46.82
2022-10-13T08:45:39.691Z,46.34
2022-10-13T08:48:14.190Z,45.23
2022-10-13T08:50:43.299Z,44.71
2022-10-13T08:53:16.576Z,46.99
2022-10-13T08:55:56.341Z,46.43
2022-10-13T08:58:26.755Z,46.43
2022-10-13T09:01:09.361Z,45.47
2022-10-13T09:04:15.498Z,49.17
2022-10-13T09:06:49.318Z,46.65
2022-10-13T09:09:17.373Z,46.39
2022-10-13T09:11:47.446Z,46.27
2022-10-13T09:14:25.457Z,45.30
2022-10-13T09:16:57.009Z,46.12
2022-10-13T09:19:40.731Z,47.15
2022-10-13T09:22:24.642Z,47.56
2022-10-13T09:25:11.932Z,46.35
2022-10-13T09:27:49.621Z,46.13
2022-10-13T09:30:29.079Z,45.52
2022-10-13T09:33:23.931Z,43.22
2022-10-13T09:35:57.115Z,43.04
2022-10-13T09:38:25.886Z,44.49
2022-10-13T09:41:00.516Z,42.68
2022-10-13T09:43:34.321Z,42.35
2022-10-13T09:46:04.914Z,42.21
2022-10-13T09:48:35.353Z,44.05
2022-10-13T09:51:02.915Z,43.79
2022-10-13T09:53:35.481Z,43.82
2022-10-13T09:56:30.347Z,45.37
2022-10-13T09:59:12.810Z,46.81
2022-10-13T10:01:44.835Z,45.81
2022-10-13T10:04:32.772Z,45.70
2022-10-13T10:07:01.144Z,45.60
2022-10-13T10:09:35.879Z,45.10
2022-10-13T10:12:03.554Z,44.23
2022-10-13T10:14:32.832Z,41.94
2022-10-13T10:17:09.346Z,42.04
2022-10-13T10:19:46.823Z,42.78
2022-10-13T10:22:38.013Z,42.16
2022-10-13T10:25:25.370Z,41.77
2022-10-13T10:28:14.868Z,41.81
2022-10-13T10:30:52.932Z,42.54
2022-10-13T10:33:27.556Z,40.57
2022-10-13T10:36:00.760Z,43.50
2022-10-13T10:39:07.067Z,41.63
2022-10-13T10:42:04.263Z,43.96
2022-10-13T10:44:37.127Z,45.39
2022-10-13T10:47:08.613Z,45.86
2022-10-13T10:49:39.466Z,42.73
2022-10-13T10:52:10.445Z,43.90
2022-10-13T10:54:48.208Z,44.42
2022-10-13T10:57:25.453Z,45.18
2022-10-13T11:00:25.735Z,45.40
2022-10-13T11:03:00.474Z,42.93
2022-10-13T11:05:31.494Z,43.21
2022-10-13T11:07:59.815Z,42.50
2022-10-13T11:10:28.305Z,41.95
2022-10-13T11:12:55.711Z,42.25
2022-10-13T11:15:25.297Z,42.11
2022-10-13T11:17:52.964Z,40.59
2022-10-13T11:20:20.313Z,40.38
2022-10-13T11:23:00.002Z,39.84
2022-10-13T11:25:41.104Z,40.88
2022-10-13T11:28:20.667Z,40.78
2022-10-13T11:30:52.268Z,41.01
2022-10-13T11:33:38.405Z,40.62
2022-10-13T11:36:48.105Z,40.02
2022-10-13T11:39:26.632Z,40.56
2022-10-13T11:42:12.418Z,41.64
2022-10-13T11:44:59.903Z,40.70
2022-10-13T11:47:54.053Z,40.12
2022-10-13T11:50:34.745Z,40.74
2022-10-13T11:53:08.046Z,40.88
2022-10-13T11:55:50.864Z,37.38
2022-10-13T11:58:23.557Z,37.70
2022-10-13T12:01:11.177Z,37.39
2022-10-13T12:03:40.988Z,38.77
2022-10-13T12:06:16.031Z,35.97
2022-10-13T12:08:50.477Z,39.46
2022-10-13T12:11:37.371Z,39.05
2022-10-13T12:14:07.721Z,38.01
2022-10-13T12:16:35.083Z,38.88
2022-10-13T12:19:29.947Z,39.28
2022-10-13T12:21:59.826Z,37.14
2022-10-13T12:24:29.802Z,37.49
2022-10-13T12:26:57.801Z,38.41
2022-10-13T12:29:27.781Z,38.14
2022-10-13T12:31:55.628Z,40.52
2022-10-13T12:34:27.692Z,40.22
2022-10-13T12:36:57.104Z,39.46
2022-10-13T12:39:25.571Z,39.71
2022-10-13T12:41:53.642Z,38.80
2022-10-13T12:44:26.293Z,38.90
2022-10-13T12:46:56.236Z,39.33
2022-10-13T12:49:29.491Z,39.54
2022-10-13T12:52:09.131Z,39.50
2022-10-13T12:54:38.643Z,38.40
2022-10-13T12:57:15.705Z,38.97
2022-10-13T12:59:43.475Z,40.22
2022-10-13T13:02:21.272Z,42.01
2022-10-13T13:04:49.150Z,42.21
2022-10-13T13:07:32.893Z,41.15
2022-10-13T13:10:04.483Z,39.95
2022-10-13T13:12:31.894Z,41.92
2022-10-13T13:15:25.777Z,40.32
2022-10-13T13:17:58.647Z,42.00
2022-10-13T13:20:32.227Z,40.87
2022-10-13T13:23:00.709Z,43.68
2022-10-13T13:25:28.104Z,43.88
2022-10-13T13:27:55.434Z,44.52
2022-10-13T13:30:24.258Z,44.02
2022-10-13T13:32:51.692Z,42.94
2022-10-13T13:35:19.100Z,43.01
2022-10-13T13:37:51.078Z,42.57
2022-10-13T13:40:21.014Z,41.92
2022-10-13T13:42:48.878Z,43.14
2022-10-13T13:45:18.382Z,41.64
2022-10-13T13:47:47.002Z,41.90
2022-10-13T13:50:21.168Z,41.75
2022-10-13T13:52:54.503Z,43.19
2022-10-13T13:55:23.425Z,43.40
2022-10-13T13:57:51.134Z,43.76
2022-10-13T14:00:18.702Z,42.91
2022-10-13T14:02:48.278Z,43.65
2022-10-13T14:05:15.708Z,43.10
2022-10-13T14:07:43.049Z,43.12
2022-10-13T14:10:10.925Z,43.04
2022-10-13T14:12:38.618Z,42.84
2022-10-13T14:15:06.502Z,42.77
2022-10-13T14:17:34.099Z,42.03
2022-10-13T14:20:01.452Z,42.30
2022-10-13T14:22:28.890Z,43.87
2022-10-13T14:24:56.491Z,43.49
2022-10-13T14:27:23.794Z,43.96
2022-10-13T14:29:52.123Z,43.55
2022-10-13T14:32:19.883Z,44.83
2022-10-13T14:34:47.401Z,44.01
2022-10-13T14:37:14.711Z,43.09
2022-10-13T14:39:42.310Z,45.00
2022-10-13T14:42:09.690Z,46.29
2022-10-13T14:44:37.035Z,45.11
2022-10-13T14:47:04.664Z,44.49
2022-10-13T14:49:31.998Z,44.81
2022-10-13T14:51:59.362Z,45.98
2022-10-13T14:54:28.342Z,45.66
2022-10-13T14:56:55.698Z,45.13
2022-10-13T14:59:23.040Z,45.26
2022-10-13T15:01:50.624Z,45.22
2022-10-13T15:04:17.939Z,45.74
2022-10-13T15:06:45.238Z,45.52
2022-10-13T15:09:13.045Z,46.12
2022-10-13T15:11:40.393Z,45.09
2022-10-13T15:14:08.657Z,47.18
2022-10-13T15:16:37.822Z,48.24
2022-10-13T15:19:05.544Z,48.10
2022-10-13T15:21:32.853Z,47.22
2022-10-13T15:24:01.473Z,48.75
2022-10-13T15:26:28.824Z,49.38
2022-10-13T15:28:56.195Z,48.89
2022-10-13T15:31:24.453Z,49.83
2022-10-13T15:33:53.471Z,50.78
2022-10-13T15:36:22.167Z,50.50
2022-10-13T15:38:50.680Z,50.41
2022-10-13T15:41:18.592Z,51.52
2022-10-13T15:43:45.969Z,52.08
2022-10-13T15:46:21.725Z,51.85
2022-10-13T15:48:53.260Z,53.29
2022-10-13T15:51:24.058Z,52.89
2022-10-13T15:53:51.423Z,52.62
2022-10-13T15:56:18.795Z,53.00
2022-10-13T15:58:46.415Z,53.23
2022-10-13T16:01:14.446Z,53.72
2022-10-13T16:03:42.376Z,54.28
2022-10-13T16:06:11.116Z,54.81
2022-10-13T16:08:39.749Z,54.79
2022-10-13T16:11:08.923Z,54.79
2022-10-13T16:13:36.427Z,55.24
2022-10-13T16:16:03.949Z,55.49
2022-10-13T16:18:32.988Z,55.84
2022-10-13T16:21:00.423Z,55.94
2022-10-13T16:23:27.773Z,56.40
2022-10-13T16:25:55.378Z,57.48
2022-10-13T16:28:23.471Z,57.30
2022-10-13T16:30:50.851Z,57.00
2022-10-13T16:33:18.558Z,56.75
2022-10-13T16:35:45.957Z,57.61
2022-10-13T16:38:14.411Z,57.05
2022-10-13T16:40:43.179Z,57.29
2022-10-13T16:43:10.535Z,57.21
2022-10-13T16:45:58.521Z,57.65
2022-10-13T16:48:26.335Z,58.30
2022-10-13T16:50:53.983Z,57.93
2022-10-13T16:53:22.899Z,58.28
2022-10-13T16:55:50.791Z,58.94
2022-10-13T16:58:18.154Z,59.11
2022-10-13T17:00:45.564Z,58.39
2022-10-13T17:03:14.039Z,58.72
2022-10-13T17:05:41.645Z,59.18
2022-10-13T17:08:09.165Z,59.41
2022-10-13T17:10:36.764Z,59.67
2022-10-13T17:13:04.133Z,59.58
2022-10-13T17:15:32.483Z,59.91
2022-10-13T17:18:00.085Z,60.36
2022-10-13T17:20:27.608Z,60.23
2022-10-13T17:22:55.273Z,60.87
2022-10-13T17:25:23.046Z,60.67
2022-10-13T17:27:50.364Z,60.87
2022-10-13T17:30:17.724Z,60.90
2022-10-13T17:32:45.715Z,61.87
2022-10-13T17:35:17.923Z,63.24
2022-10-13T17:37:45.612Z,63.22
2022-10-13T17:40:15.322Z,63.58
2022-10-13T17:42:43.720Z,62.61
2022-10-13T17:45:11.998Z,61.59
2022-10-13T17:47:39.632Z,62.34
2022-10-13T17:50:07.800Z,61.72
2022-10-13T17:52:36.405Z,62.26
2022-10-13T17:55:04.023Z,63.59
2022-10-13T17:57:31.772Z,63.74
2022-10-13T18:00:05.696Z,63.59
2022-10-13T18:02:39.830Z,63.05
2022-10-13T18:05:07.882Z,62.79
2022-10-13T18:07:35.340Z,63.25
2022-10-13T18:10:03.387Z,63.22
2022-10-13T18:12:32.263Z,63.23
2022-10-13T18:14:59.748Z,64.68
2022-10-13T18:17:27.519Z,64.25
2022-10-13T18:19:55.694Z,64.56
2022-10-13T18:22:23.426Z,64.33
2022-10-13T18:24:56.807Z,64.43
2022-10-13T18:27:24.965Z,64.65
2022-10-13T18:29:52.891Z,63.62
2022-10-13T18:32:22.425Z,64.01
2022-10-13T18:34:50.822Z,63.33
2022-10-13T18:37:18.868Z,63.04
2022-10-13T18:39:48.593Z,63.07
2022-10-13T18:42:16.837Z,63.66
2022-10-13T18:44:44.710Z,64.20
2022-10-13T18:47:12.537Z,63.99
2022-10-13T18:49:40.498Z,64.90
2022-10-13T18:52:11.453Z,64.78
2022-10-13T18:54:40.324Z,66.00
2022-10-13T18:57:08.171Z,65.55
2022-10-13T18:59:39.001Z,64.91
2022-10-13T19:02:07.234Z,64.39
2022-10-13T19:04:36.014Z,63.94
2022-10-13T19:07:04.862Z,64.46
2022-10-13T19:09:32.952Z,65.19
2022-10-13T19:12:00.627Z,65.65
2022-10-13T19:14:28.417Z,65.37
2022-10-13T19:17:01.616Z,64.68
2022-10-13T19:19:31.571Z,64.55
2022-10-13T19:22:00.725Z,64.80
2022-10-13T19:24:31.426Z,64.50
2022-10-13T19:26:59.838Z,65.21
2022-10-13T19:29:27.267Z,65.66
2022-10-13T19:31:54.936Z,65.73
2022-10-13T19:34:22.976Z,65.55
2022-10-13T19:36:50.779Z,65.18
2022-10-13T19:39:27.079Z,64.99
2022-10-13T19:41:57.965Z,65.35
2022-10-13T19:44:26.003Z,65.34
2022-10-13T19:46:54.228Z,66.10
2022-10-13T19:49:25.477Z,65.97
2022-10-13T19:51:53.996Z,66.41
2022-10-13T19:54:23.117Z,67.21
2022-10-13T19:56:51.263Z,67.14
2022-10-13T19:59:18.966Z,66.74
2022-10-13T20:01:47.087Z,65.62
2022-10-13T20:04:18.324Z,65.56
2022-10-13T20:06:46.439Z,65.43
2022-10-13T20:09:14.187Z,65.89
2022-10-13T20:11:44.743Z,66.10
2022-10-13T20:14:12.984Z,67.13
2022-10-13T20:16:40.536Z,67.08
2022-10-13T20:19:09.391Z,67.09
2022-10-13T20:21:36.720Z,66.33
2022-10-13T20:24:04.085Z,65.91
2022-10-13T20:26:31.824Z,66.64
2022-10-13T20:28:59.233Z,65.73
2022-10-13T20:31:26.717Z,67.23
2022-10-13T20:33:58.077Z,67.03
2022-10-13T20:36:28.477Z,66.75
2022-10-13T20:38:56.085Z,66.21
2022-10-13T20:41:30.514Z,65.68
2022-10-13T20:43:59.994Z,65.18
2022-10-13T20:46:27.788Z,64.75
2022-10-13T20:49:12.676Z,65.87
2022-10-13T20:51:42.752Z,65.62
2022-10-13T20:54:12.070Z,65.98
2022-10-13T20:56:39.465Z,67.00
2022-10-13T20:59:09.892Z,66.60
2022-10-13T21:01:37.789Z,66.95
2022-10-13T21:04:05.396Z,65.83
2022-10-13T21:06:33.670Z,66.09
2022-10-13T21:09:01.700Z,66.26
2022-10-13T21:11:29.042Z,67.88
2022-10-13T21:13:57.474Z,67.81
2022-10-13T21:16:27.498Z,66.96
2022-10-13T21:18:56.315Z,66.74
2022-10-13T21:21:26.425Z,66.53
2022-10-13T21:23:55.658Z,66.39
2022-10-13T21:26:24.395Z,66.71
2022-10-13T21:28:52.069Z,67.34
2022-10-13T21:31:21.495Z,66.38
2022-10-13T21:33:49.298Z,66.06
2022-10-13T21:36:20.160Z,66.34
2022-10-13T21:38:50.063Z,67.04
2022-10-13T21:41:18.073Z,67.00
2022-10-13T21:43:45.402Z,67.48
2022-10-13T21:46:21.283Z,67.68
2022-10-13T21:48:53.724Z,67.47
2022-10-13T21:51:24.106Z,67.25
2022-10-13T21:54:05.256Z,67.10
2022-10-13T21:56:33.747Z,67.61
2022-10-13T21:59:01.797Z,69.03
2022-10-13T22:01:29.641Z,70.01
2022-10-13T22:04:01.165Z,69.96
2022-10-13T22:06:30.299Z,69.53
2022-10-13T22:08:59.465Z,69.14
2022-10-13T22:11:32.149Z,68.52
2022-10-13T22:14:03.332Z,67.46
2022-10-13T22:16:36.846Z,67.15
2022-10-13T22:19:04.575Z,69.02
2022-10-13T22:21:37.355Z,69.38
2022-10-13T22:24:06.821Z,68.85
2022-10-13T22:26:36.829Z,68.71
2022-10-13T22:29:05.753Z,68.52
2022-10-13T22:31:33.407Z,68.67
2022-10-13T22:34:05.981Z,67.76
2022-10-13T22:36:33.352Z,67.42
2022-10-13T22:39:02.903Z,66.72
2022-10-13T22:41:31.895Z,66.68
2022-10-13T22:43:59.841Z,68.11
2022-10-13T22:46:29.215Z,68.40
2022-10-13T22:48:57.416Z,68.90
2022-10-13T22:51:28.359Z,69.32
2022-10-13T22:53:56.964Z,68.71
2022-10-13T22:56:26.787Z,67.93
2022-10-13T22:58:56.849Z,68.43
2022-10-13T23:01:25.252Z,68.13
2022-10-13T23:03:54.669Z,67.12
2022-10-13T23:06:24.085Z,66.70
2022-10-13T23:08:51.573Z,66.56
2022-10-13T23:11:19.341Z,67.07
2022-10-13T23:13:47.024Z,67.66
2022-10-13T23:16:17.539Z,67.69
2022-10-13T23:18:45.284Z,69.57
2022-10-13T23:21:16.822Z,69.16
2022-10-13T23:23:44.448Z,68.96
2022-10-13T23:26:14.626Z,68.52
2022-10-13T23:28:42.616Z,68.27
2022-10-13T23:31:14.896Z,68.33
2022-10-13T23:33:42.619Z,68.63
2022-10-13T23:36:14.894Z,70.42
2022-10-13T23:38:42.967Z,70.22
2022-10-13T23:41:14.936Z,69.29
2022-10-13T23:43:43.453Z,67.99
2022-10-13T23:46:11.146Z,68.02
2022-10-13T23:48:39.541Z,69.22
2022-10-13T23:51:09.851Z,70.52
2022-10-13T23:53:37.825Z,70.04
2022-10-13T23:56:06.476Z,69.12
2022-10-13T23:58:38.020Z,69.12
